Terminal Aerodrome Forecast
Issued by NWS Cleveland, OH

Home | Current Version | Previous Version | Graphics & Text | Print | Product List | Glossary On
Versions: 1 2 3 4 5 6 7 8 9 10 11 12 13 14 15
000
FTUS41 KCLE 220534
TAFYNG
TAF
KYNG 220534Z 2206/2306 19011KT P6SM BKN012 OVC100
      TEMPO 2206/2209 4SM -SHRA BR OVC009
     FM220900 25005KT P6SM BKN015
     FM221500 27010KT P6SM SCT020
     FM221800 26010G20KT P6SM SCT070
     FM230000 20005KT P6SM FEW250=

USA.gov is the U.S. government's official web portal to all federal, state and local government web resources and services.